Tanegashima - Nakatane, Japan

3:24 PM JST on February 28, 2015 (GMT +0900)
Tanegashima | Change Station
CLOSE
Current Station
Airport
Location: Tanegashima Airport,
Elevation: 778 ft
Nearby Weather Stations

Elev 778 ft 30.60 °N, 130.99 °E | Updated 17 minutes ago

Mostly Cloudy
Mostly Cloudy
52 °F
Feels Like 52 °F
N
12
Wind Variable Wind from East

Today
High -- | Low -- °F
--% Chance of Precip.
Yesterday
High -- | Low -- °F
Precip. -- in
6:44 AM 6:13 PM
Waxing Gibbous, 75% visible
Pressure 30.12 in
Visibility 0.6 miles
Clouds Few 100 ft
Scattered Clouds 200 ft
Mostly Cloudy 300 ft
Dew Point 50 °F
Humidity 94%
Rainfall 0.00 in
Snow Depth Not available.
UV 3 out of 12
Pollen Not available.
Air Quality Not available.
Flu Activity Not available.
SPECI RJFG 280607Z 09010KT 060V130 1000 R31/1000V1600U SHRA PRFG BR FEW001 SCT002 BKN003 11/10 Q1020 RMK 1ST001 3ST002 5ST003 A3013 FG SE

More Conditions Fewer Conditions

Pressure 30.12 in
Visibility 0.6 miles
Clouds Few 100 ft
Scattered Clouds 200 ft
Mostly Cloudy 300 ft
Dew Point 50 °F
Humidity 94%
Rainfall 0.00 in
Snow Depth Not available.
UV 3 out of 12
Pollen Not available.
Air Quality Not available.
Flu Activity Not available.
SPECI RJFG 280607Z 09010KT 060V130 1000 R31/1000V1600U SHRA PRFG BR FEW001 SCT002 BKN003 11/10 Q1020 RMK 1ST001 3ST002 5ST003 A3013 FG SE

More Conditions Fewer Conditions

10-Day Weather Forecast

Almanac

Astronomy

Feb. 28, 2015 Rise Set
Actual Time
Civil Twilight
Nautical Twilight
Astronomical Twilight
Moon
Length of Visible Light
Length of Day
Tomorrow will be .
, % of the Moon is Illuminated

Today's Extremes

Country Highs Country Lows

Community

WunderPhotos

Upload Photos

1,800,976 photos uploaded!

WunderBlogs® & News

Nearby

Air Quality

  Air Quality AQ Index Pollutant
Not available.

Snow Depth

Station Depth Elevation

Earthquake Activity

City Distance Mag. Time & Date
Minimum magnitude displayed is 2.5.

Coastal Water Temperatures

Place Temperature

Nearby Weather Stations